Time;durP1;ratioP1;P1;durP2;ratioP2;P2;SDS_P1;SDS_P2;PMS_P1;PMS_P2;Temp;Humidity;BMP_temperature;BMP_pressure;BME280_temperature;BME280_humidity;BME280_pressure;Samples;Min_cycle;Max_cycle;Signal;HPM_P1;HPM_P2
2021/05/30 00:00:30;;;;;;;5.07;4.13;;;;;;;10.26;85.65;100183.94;6322024;28;20043;-58
2021/05/30 00:03:31;;;;;;;7.30;4.57;;;;;;;10.20;85.96;100186.88;6320662;28;20410;-58
2021/05/30 00:06:33;;;;;;;5.15;4.15;;;;;;;10.22;86.14;100180.66;6320644;28;20055;-58
2021/05/30 00:09:34;;;;;;;;;;;;;;;10.20;86.30;100179.91;6321095;28;20483;-58
2021/05/30 00:12:36;;;;;;;6.18;3.80;;;;;;;10.16;85.46;100173.19;6321085;28;19924;-58
2021/05/30 00:15:36;;;;;;;6.40;3.88;;;;;;;10.13;85.89;100177.72;6320619;28;20067;-58
2021/05/30 00:18:37;;;;;;;5.93;4.03;;;;;;;10.16;85.94;100181.00;6321720;28;20494;-58
2021/05/30 00:21:38;;;;;;;3.92;3.47;;;;;;;10.03;86.47;100183.47;6321619;28;20101;-58
2021/05/30 00:24:39;;;;;;;6.03;3.90;;;;;;;10.06;85.89;100187.66;6321563;28;20040;-58
2021/05/30 00:27:39;;;;;;;4.85;3.75;;;;;;;10.06;85.66;100196.31;6321500;28;20040;-59
2021/05/30 00:30:40;;;;;;;9.50;4.20;;;;;;;10.04;85.87;100195.56;6320167;28;20044;-58
2021/05/30 00:33:41;;;;;;;5.15;3.88;;;;;;;10.00;86.68;100196.66;6320238;28;20479;-59
2021/05/30 00:36:44;;;;;;;5.25;3.85;;;;;;;9.72;87.68;100197.38;6321419;28;20048;-58
2021/05/30 00:39:45;;;;;;;4.43;3.58;;;;;;;9.69;88.02;100193.16;6320058;28;20432;-59
2021/05/30 00:42:45;;;;;;;5.40;3.85;;;;;;;9.68;88.17;100198.47;6319971;28;20071;-59
2021/05/30 00:45:48;;;;;;;4.10;3.70;;;;;;;9.74;88.41;100202.50;6319916;28;20633;-59
2021/05/30 00:48:49;;;;;;;5.85;3.55;;;;;;;9.76;88.38;100196.28;6321432;28;20162;-59
2021/05/30 00:51:51;;;;;;;4.53;3.45;;;;;;;9.78;87.36;100188.38;6319798;28;20046;-59
2021/05/30 00:54:52;;;;;;;8.53;3.73;;;;;;;9.79;87.19;100182.25;6321360;28;20486;-59
2021/05/30 00:57:53;;;;;;;4.63;3.55;;;;;;;9.77;87.09;100184.09;6303068;28;20273;-59
2021/05/30 01:00:53;;;;;;;5.40;3.70;;;;;;;9.73;87.84;100186.03;6320039;28;20090;-59
2021/05/30 01:03:54;;;;;;;4.35;3.47;;;;;;;9.69;87.14;100179.28;6319993;28;20052;-59
2021/05/30 01:06:58;;;;;;;6.22;4.03;;;;;;;9.65;87.48;100176.00;6319653;28;20086;-59
2021/05/30 01:10:19;;;;;;;8.02;3.65;;;;;;;9.62;87.07;100171.00;6319880;28;20048;-59
2021/05/30 01:13:21;;;;;;;9.55;3.88;;;;;;;9.61;87.00;100176.28;6320792;28;20467;-59
2021/05/30 01:16:22;;;;;;;;;;;;;;;9.62;87.29;100168.38;6321346;28;20060;-59
2021/05/30 01:19:27;;;;;;;4.55;3.55;;;;;;;9.59;87.46;100168.53;6320847;28;19920;-59
2021/05/30 01:22:33;;;;;;;5.00;3.85;;;;;;;9.60;87.46;100169.41;6304826;28;20040;-59
2021/05/30 01:25:34;;;;;;;5.25;3.60;;;;;;;9.59;86.77;100175.53;6324517;28;20494;-59
2021/05/30 01:28:36;;;;;;;5.85;4.05;;;;;;;9.55;87.54;100172.22;6325793;28;20089;-59
2021/05/30 01:31:36;;;;;;;5.45;3.75;;;;;;;9.57;87.15;100173.00;6325570;28;20070;-59
2021/05/30 01:34:37;;;;;;;6.70;4.05;;;;;;;9.54;87.92;100174.94;6324326;28;20482;-59
2021/05/30 01:37:39;;;;;;;6.75;3.92;;;;;;;9.54;87.46;100178.38;6325540;28;20051;-59
2021/05/30 01:40:41;;;;;;;6.55;4.22;;;;;;;9.58;87.29;100177.28;6325504;28;20479;-59
2021/05/30 01:43:42;;;;;;;6.50;4.20;;;;;;;9.57;87.25;100177.38;6307670;28;20044;-59
2021/05/30 01:46:43;;;;;;;5.00;4.05;;;;;;;9.58;87.42;100174.69;6325026;28;20055;-59
2021/05/30 01:49:43;;;;;;;5.22;4.57;;;;;;;9.59;87.01;100183.34;6330110;28;20096;-59
2021/05/30 01:52:46;;;;;;;8.88;4.07;;;;;;;9.58;87.83;100187.72;6349318;28;20032;-59
2021/05/30 01:58:48;;;;;;;7.82;3.88;;;;;;;9.51;88.04;100188.94;6350326;28;20020;-59
2021/05/30 02:01:51;;;;;;;8.80;4.05;;;;;;;9.48;88.23;100189.97;6349291;28;20397;-60
2021/05/30 02:04:53;;;;;;;7.93;3.45;;;;;;;9.43;87.40;100194.59;6349890;28;20466;-59
2021/05/30 02:07:54;;;;;;;;;;;;;;;9.36;87.69;100188.03;6335263;28;20503;-60
2021/05/30 02:10:55;;;;;;;5.65;3.70;;;;;;;9.35;87.95;100193.31;6324700;28;19927;-60
2021/05/30 02:14:00;;;;;;;7.30;3.95;;;;;;;9.35;87.83;100201.13;6323667;28;20036;-60
2021/05/30 02:17:02;;;;;;;4.90;3.58;;;;;;;9.32;88.75;100201.31;6324596;28;20046;-60
2021/05/30 02:20:04;;;;;;;6.13;3.53;;;;;;;9.32;88.20;100196.94;6323756;28;20040;-60
2021/05/30 02:23:10;;;;;;;4.45;3.47;;;;;;;9.34;87.88;100200.28;6324442;28;20047;-60
2021/05/30 02:26:11;;;;;;;7.88;3.42;;;;;;;9.33;87.55;100197.75;6324394;28;20473;-60
2021/05/30 02:29:29;;;;;;;4.53;3.60;;;;;;;9.31;87.77;100197.88;6324269;28;20047;-60
2021/05/30 02:32:30;;;;;;;8.88;4.05;;;;;;;9.26;87.92;100205.91;6324263;28;20040;-60
2021/05/30 02:35:31;;;;;;;6.68;3.80;;;;;;;9.27;88.06;100198.94;6323481;28;20507;-60
2021/05/30 02:38:32;;;;;;;5.68;3.80;;;;;;;9.25;88.01;100203.41;6324035;28;20044;-59
2021/05/30 02:41:33;;;;;;;5.20;3.80;;;;;;;9.20;87.80;100208.81;6324078;28;20410;-60
2021/05/30 02:44:34;;;;;;;4.97;3.55;;;;;;;9.17;88.11;100209.00;6322664;28;20131;-60
2021/05/30 02:47:35;;;;;;;5.10;3.45;;;;;;;9.18;87.89;100212.44;6322873;28;20052;-60
2021/05/30 02:50:35;;;;;;;6.90;3.92;;;;;;;9.15;88.30;100221.25;6323670;28;20043;-60
2021/05/30 02:53:36;;;;;;;6.20;3.67;;;;;;;9.17;88.17;100223.78;6322596;28;20394;-59
2021/05/30 02:56:37;;;;;;;4.40;3.67;;;;;;;9.18;87.75;100218.50;6327904;28;20067;-60
2021/05/30 02:59:38;;;;;;;10.38;4.00;;;;;;;9.16;88.57;100217.75;6349241;28;20077;-60
2021/05/30 03:02:39;;;;;;;8.18;4.30;;;;;;;9.17;87.76;100215.97;6348716;28;20047;-60
2021/05/30 03:05:39;;;;;;;7.72;3.38;;;;;;;9.20;87.77;100221.84;6347337;28;20506;-60
2021/05/30 03:08:40;;;;;;;4.25;3.63;;;;;;;9.21;87.72;100225.31;6347533;28;20580;-60
2021/05/30 03:11:41;;;;;;;5.72;3.92;;;;;;;9.25;87.56;100227.66;6330486;28;20547;-60
2021/05/30 03:14:42;;;;;;;11.10;3.83;;;;;;;9.26;88.12;100224.13;6348510;28;20075;-60
2021/05/30 03:17:42;;;;;;;4.97;3.83;;;;;;;9.33;87.67;100213.38;6348429;28;20103;-60
2021/05/30 03:20:43;;;;;;;7.85;4.15;;;;;;;9.36;87.48;100223.66;6347112;28;20088;-60
2021/05/30 03:23:44;;;;;;;6.68;4.00;;;;;;;9.39;87.20;100226.94;6348560;28;20055;-60
2021/05/30 03:26:45;;;;;;;7.80;4.07;;;;;;;9.43;87.32;100230.19;6313703;28;20073;-60
2021/05/30 03:29:46;;;;;;;6.15;4.28;;;;;;;9.40;87.17;100236.41;6348118;28;20514;-60
2021/05/30 03:32:47;;;;;;;4.20;3.40;;;;;;;9.44;87.44;100244.91;6348225;28;20040;-60
2021/05/30 03:35:48;;;;;;;8.20;4.25;;;;;;;9.46;87.34;100240.47;6347955;28;20092;-60
2021/05/30 03:38:49;;;;;;;6.40;4.35;;;;;;;9.46;87.30;100235.25;6347891;28;20036;-60
2021/05/30 03:41:54;;;;;;;9.60;4.07;;;;;;;9.50;87.48;100239.38;6347013;28;20094;-60
2021/05/30 03:44:57;;;;;;;8.80;4.15;;;;;;;9.52;87.03;100237.53;6347095;28;20043;-60
2021/05/30 03:47:57;;;;;;;8.52;4.60;;;;;;;9.59;87.16;100240.66;6346293;28;20456;-60
2021/05/30 03:50:58;;;;;;;6.55;4.22;;;;;;;9.72;86.86;100235.59;6347628;28;20043;-60
2021/05/30 03:53:59;;;;;;;8.43;4.25;;;;;;;9.81;86.51;100248.16;6347607;28;20042;-60
2021/05/30 03:57:01;;;;;;;5.43;3.88;;;;;;;9.84;86.33;100243.63;6329324;28;20133;-60
2021/05/30 04:00:07;;;;;;;7.22;4.07;;;;;;;9.88;86.48;100245.13;6347453;28;20410;-60
2021/05/30 04:03:09;;;;;;;8.00;4.50;;;;;;;9.97;85.63;100255.97;6334388;28;20036;-60
2021/05/30 04:06:10;;;;;;;6.53;4.15;;;;;;;10.04;85.37;100257.31;6321993;28;20059;-60
2021/05/30 04:09:11;;;;;;;5.20;3.72;;;;;;;10.06;84.41;100252.84;6320922;28;20115;-60
2021/05/30 04:12:13;;;;;;;5.68;4.22;;;;;;;10.10;84.18;100264.78;6320547;28;20075;-60
2021/05/30 04:15:15;;;;;;;6.10;4.13;;;;;;;10.11;84.48;100263.88;6321860;28;20123;-60
2021/05/30 04:18:15;;;;;;;11.25;4.15;;;;;;;10.17;84.16;100257.44;6321693;28;20489;-60
2021/05/30 04:21:16;;;;;;;5.90;3.65;;;;;;;10.23;84.16;100267.53;6320552;28;20047;-60
2021/05/30 04:24:17;;;;;;;8.15;4.35;;;;;;;10.24;84.59;100269.22;6321473;28;20044;-60
2021/05/30 04:27:18;;;;;;;5.82;3.60;;;;;;;10.31;85.17;100267.97;6331565;28;20050;-60
2021/05/30 04:30:19;;;;;;;4.80;4.00;;;;;;;10.32;86.37;100261.03;6346871;28;20039;-60
2021/05/30 04:33:21;;;;;;;5.60;3.83;;;;;;;10.44;85.00;100255.09;6346793;28;20035;-60
2021/05/30 04:36:22;;;;;;;10.10;4.70;;;;;;;10.55;84.24;100259.69;6344481;28;20040;-60
2021/05/30 04:39:25;;;;;;;7.47;4.47;;;;;;;10.58;83.97;100260.34;6321275;28;20054;-61
2021/05/30 04:42:27;;;;;;;7.13;4.05;;;;;;;10.64;83.78;100264.38;6321313;28;20040;-60
2021/05/30 04:45:27;;;;;;;6.80;4.05;;;;;;;10.63;83.20;100260.09;6321170;28;20067;-60
2021/05/30 04:48:28;;;;;;;7.97;3.78;;;;;;;10.71;83.52;100259.63;6320017;28;20062;-60
2021/05/30 04:51:29;;;;;;;4.35;3.70;;;;;;;10.78;84.95;100260.97;6303541;28;20051;-60
2021/05/30 04:54:30;;;;;;;5.53;3.75;;;;;;;10.85;83.18;100254.44;6319933;28;20048;-60
2021/05/30 04:57:31;;;;;;;15.15;3.90;;;;;;;10.89;82.65;100259.41;6328111;28;20407;-59
2021/05/30 05:00:32;;;;;;;6.65;3.90;;;;;;;10.89;82.20;100256.81;6345114;28;20165;-60
2021/05/30 05:03:33;;;;;;;4.38;3.55;;;;;;;10.93;82.36;100267.06;6346398;28;20044;-59
2021/05/30 05:06:34;;;;;;;7.32;3.70;;;;;;;10.96;80.99;100259.88;6346005;28;20128;-59
2021/05/30 05:09:35;;;;;;;11.43;6.20;;;;;;;11.05;82.32;100267.16;6345092;28;20063;-59
2021/05/30 05:12:36;;;;;;;21.98;11.25;;;;;;;11.11;81.60;100270.34;6328013;28;20036;-60
2021/05/30 05:15:37;;;;;;;21.80;12.20;;;;;;;11.26;81.39;100270.28;6346134;28;20047;-59
2021/05/30 05:18:39;;;;;;;8.93;5.55;;;;;;;11.39;80.99;100264.31;6346029;28;20081;-60
2021/05/30 05:21:39;;;;;;;9.20;6.05;;;;;;;11.52;81.00;100272.22;6345904;28;20459;-60
2021/05/30 05:24:40;;;;;;;4.70;3.97;;;;;;;11.57;80.59;100268.41;6321241;28;20049;-60
2021/05/30 05:27:41;;;;;;;5.13;3.97;;;;;;;11.60;79.53;100267.38;6339859;28;20044;-59
2021/05/30 05:30:42;;;;;;;4.97;3.85;;;;;;;11.60;78.60;100257.75;6327802;28;20039;-59
2021/05/30 05:33:43;;;;;;;5.40;3.80;;;;;;;11.60;79.15;100257.75;6310858;28;20071;-58
2021/05/30 05:36:44;;;;;;;12.68;8.70;;;;;;;11.57;81.25;100254.47;6344246;28;20437;-59
2021/05/30 05:39:44;;;;;;;10.93;7.78;;;;;;;11.67;78.66;100256.44;6327787;28;20040;-59
2021/05/30 05:42:45;;;;;;;12.00;8.38;;;;;;;11.77;77.51;100256.69;6345995;28;20063;-60
2021/05/30 05:45:47;;;;;;;13.30;5.90;;;;;;;11.84;76.22;100255.38;6345445;28;20371;-58
2021/05/30 05:48:47;;;;;;;11.73;7.47;;;;;;;11.94;74.31;100255.66;6344534;28;20600;-59
2021/05/30 05:51:48;;;;;;;8.52;5.70;;;;;;;12.01;74.57;100256.97;6345297;28;20044;-63
2021/05/30 05:54:50;;;;;;;9.52;4.97;;;;;;;12.12;73.33;100252.81;6344458;28;20036;-59
2021/05/30 05:57:52;;;;;;;6.10;3.65;;;;;;;12.21;72.59;100258.31;6345672;28;20409;-58
2021/05/30 06:00:53;;;;;;;5.30;3.85;;;;;;;12.30;71.32;100249.00;6327591;28;20088;-60
2021/05/30 06:03:53;;;;;;;5.32;3.40;;;;;;;12.42;71.69;100250.00;6345527;28;20044;-59
2021/05/30 06:06:54;;;;;;;4.28;3.25;;;;;;;12.54;70.35;100256.19;6344046;28;20052;-59
2021/05/30 06:09:55;;;;;;;5.95;3.10;;;;;;;12.64;68.18;100262.47;6348023;28;20084;-59
2021/05/30 06:12:59;;;;;;;6.60;3.15;;;;;;;12.74;68.08;100257.50;6350075;28;20085;-59
2021/05/30 06:16:05;;;;;;;4.68;3.40;;;;;;;12.83;67.88;100262.94;6348985;28;20159;-59
2021/05/30 06:19:05;;;;;;;6.75;3.13;;;;;;;12.89;68.22;100257.31;6332557;28;20039;-60
2021/05/30 06:22:07;;;;;;;4.72;2.85;;;;;;;13.02;67.70;100249.44;6348736;28;20109;-60
2021/05/30 06:25:08;;;;;;;;;;;;;;;13.15;66.63;100257.31;6348968;28;20039;-59
2021/05/30 06:28:10;;;;;;;4.15;2.83;;;;;;;13.25;67.56;100255.72;6348663;28;20041;-60
2021/05/30 06:31:10;;;;;;;3.95;2.70;;;;;;;13.37;67.78;100258.50;6348333;28;20478;-60
2021/05/30 06:34:15;;;;;;;4.25;2.78;;;;;;;13.46;64.61;100248.19;6348548;28;20389;-59
2021/05/30 06:37:16;;;;;;;4.25;2.90;;;;;;;13.58;65.24;100259.59;6348231;28;20439;-59
2021/05/30 06:40:17;;;;;;;4.43;2.95;;;;;;;13.69;65.19;100257.06;6348142;28;20044;-59
2021/05/30 06:43:18;;;;;;;4.43;2.80;;;;;;;13.82;65.22;100264.91;6328630;28;20383;-59
2021/05/30 06:46:18;;;;;;;4.07;3.00;;;;;;;13.95;65.66;100261.41;6323922;28;20082;-60
2021/05/30 06:49:19;;;;;;;5.00;3.17;;;;;;;14.10;65.62;100269.00;6322831;28;20056;-59
2021/05/30 06:52:20;;;;;;;4.47;2.95;;;;;;;14.22;63.75;100271.69;6311105;28;20047;-59
2021/05/30 06:55:23;;;;;;;6.93;2.80;;;;;;;14.22;61.11;100272.50;6349002;28;20039;-59
2021/05/30 06:58:24;;;;;;;4.20;2.97;;;;;;;14.26;60.93;100275.75;6348998;28;20039;-58
2021/05/30 07:01:25;;;;;;;4.60;3.00;;;;;;;14.30;61.23;100280.66;6348985;28;20075;-59
2021/05/30 07:04:27;;;;;;;3.90;2.80;;;;;;;14.37;61.99;100283.69;6348870;27;20282;-58
2021/05/30 07:07:28;;;;;;;3.63;2.70;;;;;;;14.40;61.45;100282.63;6330696;28;20480;-59
2021/05/30 07:10:29;;;;;;;4.50;2.80;;;;;;;14.47;62.21;100281.22;6349045;28;20046;-59
2021/05/30 07:13:30;;;;;;;3.67;2.85;;;;;;;14.49;59.97;100277.53;6349472;28;20035;-59
2021/05/30 07:16:31;;;;;;;3.97;2.88;;;;;;;14.49;60.43;100274.91;6349289;28;20600;-59
2021/05/30 07:19:32;;;;;;;4.18;2.67;;;;;;;14.52;60.59;100272.06;6347912;28;20122;-59
2021/05/30 07:22:32;;;;;;;5.30;2.97;;;;;;;14.61;61.33;100275.81;6349380;28;20501;-59
2021/05/30 07:25:33;;;;;;;3.92;3.13;;;;;;;14.69;61.22;100281.34;6347807;28;20047;-59
2021/05/30 07:28:34;;;;;;;4.65;3.20;;;;;;;14.79;59.06;100275.41;6347682;28;20274;-59
2021/05/30 07:31:35;;;;;;;4.13;3.25;;;;;;;14.84;61.96;100273.25;6348999;28;20055;-59
2021/05/30 07:34:36;;;;;;;7.30;3.20;;;;;;;14.96;61.92;100276.75;6349063;28;20055;-59
2021/05/30 07:37:37;;;;;;;5.60;3.10;;;;;;;15.15;61.83;100269.13;6348882;28;20596;-59
2021/05/30 07:40:38;;;;;;;4.90;3.08;;;;;;;15.44;59.23;100276.56;6348744;28;20059;-58
2021/05/30 07:43:39;;;;;;;6.15;2.97;;;;;;;15.58;59.13;100270.22;6348680;28;20047;-59
2021/05/30 07:46:40;;;;;;;4.87;2.33;;;;;;;15.60;55.09;100274.41;6330604;28;20428;-58
2021/05/30 07:49:41;;;;;;;3.47;2.55;;;;;;;15.61;55.70;100277.91;6364581;27;20104;-58
2021/05/30 07:52:42;;;;;;;3.28;2.50;;;;;;;15.54;57.36;100274.06;6348382;28;20047;-57
2021/05/30 07:55:44;;;;;;;4.45;2.30;;;;;;;15.43;55.47;100272.28;6348595;28;20074;-58
2021/05/30 07:58:45;;;;;;;3.35;2.50;;;;;;;15.43;56.14;100273.09;6347225;28;20141;-59
2021/05/30 08:01:47;;;;;;;3.22;2.00;;;;;;;15.26;56.89;100268.31;6348354;28;20069;-58
2021/05/30 08:04:47;;;;;;;3.17;2.20;;;;;;;15.06;55.57;100277.72;6347131;28;20058;-58
2021/05/30 08:07:50;;;;;;;3.08;2.47;;;;;;;15.19;56.88;100270.56;6347092;28;20059;-58
2021/05/30 08:10:51;;;;;;;3.35;2.10;;;;;;;15.41;56.83;100274.19;6348101;28;20044;-58
2021/05/30 08:13:52;;;;;;;3.67;2.28;;;;;;;15.70;55.24;100270.09;6346945;28;20092;-58
2021/05/30 08:16:53;;;;;;;3.53;1.97;;;;;;;15.77;51.52;100277.53;6346778;28;20055;-58
2021/05/30 08:19:54;;;;;;;2.67;1.75;;;;;;;15.93;54.57;100264.81;6346523;28;20677;-57
2021/05/30 08:22:55;;;;;;;3.00;1.90;;;;;;;16.30;52.59;100280.28;6346432;28;20051;-57
2021/05/30 08:25:57;;;;;;;2.50;1.80;;;;;;;16.45;51.80;100268.50;6347674;28;20501;-58
2021/05/30 08:28:58;;;;;;;4.32;2.17;;;;;;;16.50;50.11;100273.41;6347950;28;20059;-57
2021/05/30 08:31:59;;;;;;;3.33;2.10;;;;;;;16.63;52.52;100279.31;6347183;28;20063;-57
2021/05/30 08:35:00;;;;;;;1.73;1.60;;;;;;;16.83;51.99;100282.13;6347729;28;20161;-57
2021/05/30 08:38:01;;;;;;;3.25;1.95;;;;;;;16.77;48.78;100278.16;6336141;28;20042;-57
2021/05/30 08:41:02;;;;;;;4.22;1.92;;;;;;;16.62;50.15;100275.00;6321721;28;20048;-58
2021/05/30 08:44:03;;;;;;;2.60;1.80;;;;;;;16.61;49.13;100275.13;6320932;28;20522;-57
2021/05/30 08:47:05;;;;;;;2.93;1.60;;;;;;;16.53;48.18;100273.13;6321927;28;20440;-57
2021/05/30 08:50:06;;;;;;;1.83;1.70;;;;;;;16.46;49.14;100266.72;6320075;28;20048;-57
2021/05/30 08:53:09;;;;;;;4.10;2.03;;;;;;;16.34;50.64;100276.44;6320118;28;20093;-57
2021/05/30 08:56:12;;;;;;;3.35;2.35;;;;;;;16.14;50.39;100282.47;6320846;28;20040;-57
2021/05/30 08:59:32;;;;;;;3.17;1.80;;;;;;;16.20;50.17;100279.34;6321692;28;20047;-57
2021/05/30 09:02:33;;;;;;;3.58;1.92;;;;;;;16.22;49.59;100270.38;6322006;28;20480;-56
2021/05/30 09:05:35;;;;;;;3.78;2.17;;;;;;;16.41;50.16;100277.63;6321643;28;20060;-56
2021/05/30 09:08:41;;;;;;;2.03;1.65;;;;;;;16.49;48.09;100275.19;6321789;28;20067;-56
2021/05/30 09:11:50;;;;;;;5.93;2.05;;;;;;;16.42;49.25;100271.38;6303923;28;20040;-57
2021/05/30 09:14:53;;;;;;;3.28;2.13;;;;;;;16.61;49.02;100265.44;6320617;28;20052;-57
2021/05/30 09:18:14;;;;;;;3.00;2.20;;;;;;;16.99;50.00;100271.13;6321666;28;20079;-57
2021/05/30 09:21:15;;;;;;;2.00;1.70;;;;;;;16.88;48.49;100267.59;6320555;28;20052;-57
2021/05/30 09:24:16;;;;;;;4.63;2.15;;;;;;;17.13;49.75;100268.13;6320380;28;20312;-57
2021/05/30 09:27:19;;;;;;;4.43;2.00;;;;;;;17.51;49.55;100264.03;6321572;28;20494;-56
2021/05/30 09:30:37;;;;;;;2.97;2.20;;;;;;;17.71;47.09;100260.47;6321494;28;20052;-57
2021/05/30 09:33:38;;;;;;;5.32;2.00;;;;;;;18.02;47.53;100270.19;6321640;28;20048;-57
2021/05/30 09:36:51;;;;;;;3.58;2.00;;;;;;;18.05;47.99;100265.44;6321588;28;20058;-57
2021/05/30 09:39:51;;;;;;;3.35;2.10;;;;;;;18.24;47.07;100269.06;6321800;28;20052;-57
2021/05/30 09:43:00;;;;;;;2.00;1.60;;;;;;;17.89;42.62;100260.72;6333924;28;20059;-57
2021/05/30 09:46:13;;;;;;;2.53;1.65;;;;;;;17.76;45.17;100253.97;6351274;28;20051;-57
2021/05/30 09:49:14;;;;;;;2.00;1.77;;;;;;;17.72;44.89;100256.03;6349972;28;20050;-57
2021/05/30 09:52:37;;;;;;;3.10;1.88;;;;;;;17.65;44.96;100255.75;6350371;28;20048;-57
2021/05/30 09:55:38;;;;;;;2.38;1.63;;;;;;;17.51;45.26;100256.94;6333030;28;20070;-57
2021/05/30 09:58:51;;;;;;;5.35;1.67;;;;;;;17.25;46.52;100256.53;6349934;28;20067;-58
2021/05/30 10:02:00;;;;;;;3.55;2.10;;;;;;;17.26;46.54;100262.69;6349935;28;20413;-57
2021/05/30 10:05:01;;;;;;;3.20;1.92;;;;;;;17.07;45.74;100260.75;6332994;28;20055;-57
2021/05/30 10:08:03;;;;;;;2.90;1.70;;;;;;;17.24;46.85;100251.44;6350958;28;20080;-57
2021/05/30 10:11:05;;;;;;;7.05;1.92;;;;;;;17.42;46.57;100254.25;6350980;28;20039;-57
2021/05/30 10:14:07;;;;;;;2.75;1.80;;;;;;;17.48;44.79;100249.31;6351006;28;20051;-57
2021/05/30 10:17:10;;;;;;;2.33;1.70;;;;;;;17.81;45.57;100249.97;6351161;28;20043;-57
2021/05/30 10:20:15;;;;;;;4.40;2.60;;;;;;;17.91;45.60;100260.56;6349431;28;20075;-57
2021/05/30 10:23:18;;;;;;;3.35;2.03;;;;;;;17.98;44.57;100258.22;6349225;28;20047;-58
2021/05/30 10:26:23;;;;;;;2.65;1.70;;;;;;;17.72;44.78;100251.59;6350824;28;20044;-58
2021/05/30 10:29:24;;;;;;;3.83;2.10;;;;;;;17.57;45.51;100260.84;6349705;28;20116;-58
2021/05/30 10:32:25;;;;;;;8.30;2.72;;;;;;;17.39;46.84;100260.63;6348571;28;20484;-58
2021/05/30 10:35:26;;;;;;;11.17;5.73;;;;;;;17.23;46.96;100261.13;6349091;28;20058;-58
2021/05/30 10:38:42;;;;;;;7.23;4.17;;;;;;;17.15;47.83;100257.47;6348470;28;20119;-58
2021/05/30 10:42:15;;;;;;;4.13;2.33;;;;;;;17.27;48.59;100254.63;6350154;28;20043;-58
2021/05/30 10:45:16;;;;;;;4.40;3.33;;;;;;;17.73;46.79;100247.16;6349389;28;20511;-57
2021/05/30 10:48:18;;;;;;;2.75;2.38;;;;;;;18.25;45.79;100244.34;6348614;28;20048;-58
2021/05/30 10:51:29;;;;;;;2.20;1.85;;;;;;;18.76;45.02;100250.28;6349236;28;20044;-57
2021/05/30 10:54:33;;;;;;;2.38;1.77;;;;;;;18.82;45.36;100247.09;6349179;28;20047;-57
2021/05/30 10:57:39;;;;;;;18.77;11.43;;;;;;;18.45;43.59;100242.53;6349462;28;20048;-58
2021/05/30 11:00:40;;;;;;;11.70;6.72;;;;;;;18.28;45.19;100241.41;6348237;28;20047;-58
2021/05/30 11:03:52;;;;;;;5.15;3.85;;;;;;;18.07;45.03;100244.19;6347758;28;20050;-57
2021/05/30 11:07:08;;;;;;;5.85;2.10;;;;;;;18.18;45.52;100238.78;6348724;28;20063;-58
2021/05/30 11:10:11;;;;;;;5.10;2.17;;;;;;;18.57;44.67;100235.28;6348806;28;20052;-58
2021/05/30 11:13:15;;;;;;;5.47;2.35;;;;;;;19.02;45.59;100240.78;6348891;28;20043;-58
2021/05/30 11:16:18;;;;;;;2.80;2.03;;;;;;;19.20;41.89;100235.59;6347636;28;20044;-58
2021/05/30 11:19:19;;;;;;;3.45;2.22;;;;;;;19.40;43.97;100235.53;6347352;28;20462;-58
2021/05/30 11:22:20;;;;;;;2.15;1.70;;;;;;;19.29;41.94;100245.31;6348776;28;20184;-57
2021/05/30 11:25:32;;;;;;;4.78;2.20;;;;;;;19.28;40.75;100235.69;6330411;28;20054;-57
2021/05/30 11:28:33;;;;;;;;;;;;;;;19.29;41.42;100245.31;6347633;28;20491;-57
2021/05/30 11:31:34;;;;;;;3.10;1.88;;;;;;;19.28;40.93;100240.16;6348385;28;20366;-57
2021/05/30 11:34:35;;;;;;;3.00;1.70;;;;;;;19.44;40.22;100242.19;6348003;28;20088;-57
2021/05/30 11:37:36;;;;;;;2.58;1.60;;;;;;;20.10;38.75;100244.59;6347312;28;20036;-57
2021/05/30 11:40:39;;;;;;;2.90;2.03;;;;;;;20.22;38.91;100250.53;6347581;28;20051;-58
2021/05/30 11:43:55;;;;;;;2.83;1.83;;;;;;;20.20;38.45;100239.25;6347156;28;20390;-58
2021/05/30 11:47:05;;;;;;;2.00;1.67;;;;;;;20.00;39.33;100241.19;6348479;28;20036;-58
2021/05/30 11:50:06;;;;;;;2.65;2.20;;;;;;;19.47;39.96;100253.28;6348265;28;20485;-58
2021/05/30 11:53:24;;;;;;;1.50;1.40;;;;;;;18.96;40.45;100253.75;6347525;28;20059;-58
2021/05/30 11:56:37;;;;;;;2.45;1.63;;;;;;;18.46;43.64;100257.41;6348413;28;20043;-58
2021/05/30 11:59:40;;;;;;;3.00;1.50;;;;;;;17.95;42.84;100266.41;6347970;28;20549;-58
2021/05/30 12:02:42;;;;;;;4.00;1.50;;;;;;;17.35;45.17;100268.97;6347757;28;20042;-58
2021/05/30 12:05:43;;;;;;;2.10;1.20;;;;;;;17.00;45.78;100276.25;6347573;28;20486;-58
2021/05/30 12:08:57;;;;;;;0.80;0.80;;;;;;;16.84;44.00;100275.88;6345717;28;20059;-58
2021/05/30 12:11:58;;;;;;;3.00;1.40;;;;;;;17.21;43.72;100270.97;6346210;28;20114;-58
2021/05/30 12:15:02;;;;;;;1.15;1.05;;;;;;;17.21;42.94;100281.50;6346238;28;20501;-58
2021/05/30 12:18:07;;;;;;;1.30;1.00;;;;;;;17.28;41.15;100269.47;6347342;28;20136;-59
2021/05/30 12:21:08;;;;;;;1.10;1.00;;;;;;;17.92;41.02;100276.25;6347257;28;20044;-59
2021/05/30 12:24:12;;;;;;;1.10;1.00;;;;;;;20.22;35.99;100281.47;6346056;28;20126;-58
2021/05/30 12:27:14;;;;;;;1.00;0.90;;;;;;;23.02;30.07;100279.06;6346500;28;20449;-59
2021/05/30 12:30:15;;;;;;;;;;;;;;;24.59;28.94;100280.03;6347434;28;20516;-59
2021/05/30 12:33:16;;;;;;;1.17;0.77;;;;;;;25.11;28.04;100280.03;6345759;28;19947;-58
2021/05/30 12:36:40;;;;;;;1.15;1.02;;;;;;;23.86;28.04;100282.16;6346944;28;20036;-58
2021/05/30 12:39:41;;;;;;;1.08;1.00;;;;;;;23.59;28.00;100273.59;6347480;28;20048;-58
2021/05/30 12:42:43;;;;;;;1.40;1.10;;;;;;;22.02;31.69;100281.81;6345803;28;20046;-58
2021/05/30 12:46:02;;;;;;;1.60;1.20;;;;;;;21.43;34.10;100287.88;6346592;28;20035;-58
2021/05/30 12:49:18;;;;;;;1.35;1.23;;;;;;;20.79;34.00;100275.88;6346385;28;20051;-58
2021/05/30 12:52:19;;;;;;;1.27;1.17;;;;;;;21.12;32.99;100277.75;6346345;28;20371;-58
2021/05/30 12:55:35;;;;;;;2.43;1.60;;;;;;;20.86;34.94;100282.22;6328871;28;20059;-58
2021/05/30 12:58:36;;;;;;;3.47;1.80;;;;;;;20.86;35.76;100280.41;6346646;28;20035;-58
2021/05/30 13:01:37;;;;;;;;;;;;;;;21.34;38.06;100284.34;6345169;28;20044;-58
2021/05/30 13:04:46;;;;;;;2.58;1.85;;;;;;;21.24;40.63;100301.38;6326261;28;19924;-58
2021/05/30 13:07:47;;;;;;;2.53;1.60;;;;;;;20.75;43.34;100301.84;6345337;28;20047;-58
2021/05/30 13:10:59;;;;;;;2.03;1.77;;;;;;;20.44;45.83;100298.72;6344894;28;20070;-58
2021/05/30 13:13:59;;;;;;;2.53;1.90;;;;;;;20.31;40.91;100288.50;6346250;28;20067;-58
2021/05/30 13:17:18;;;;;;;3.87;1.97;;;;;;;20.22;40.91;100284.09;6341620;28;20990;-58
2021/05/30 13:20:21;;;;;;;3.15;1.63;;;;;;;19.68;41.24;100290.13;6342783;28;20047;-58
2021/05/30 13:23:28;;;;;;;2.38;2.00;;;;;;;19.57;43.82;100290.31;6346271;28;20072;-58
2021/05/30 13:26:28;;;;;;;6.00;2.30;;;;;;;19.74;44.27;100280.78;6334813;28;20048;-59
2021/05/30 13:29:29;;;;;;;1.83;1.73;;;;;;;19.64;44.59;100290.56;6324868;28;20448;-58
2021/05/30 13:32:30;;;;;;;1.92;1.70;;;;;;;19.15;45.35;100285.47;6326367;28;20071;-58
2021/05/30 13:35:31;;;;;;;1.90;1.73;;;;;;;18.55;48.74;100288.25;6326687;28;20406;-58
2021/05/30 13:38:33;;;;;;;2.23;2.03;;;;;;;18.06;52.56;100288.25;6326400;28;20056;-57
2021/05/30 13:41:34;;;;;;;2.22;2.03;;;;;;;17.88;55.69;100282.78;6325164;28;20048;-58
2021/05/30 13:44:34;;;;;;;2.72;2.40;;;;;;;17.47;57.64;100286.38;6326483;28;20051;-58
2021/05/30 13:47:36;;;;;;;2.23;1.90;;;;;;;17.65;55.84;100279.50;6326358;28;20056;-58
2021/05/30 13:50:38;;;;;;;2.30;2.08;;;;;;;17.63;54.80;100275.31;6325952;28;20044;-58
2021/05/30 13:53:42;;;;;;;3.53;1.98;;;;;;;17.49;54.17;100285.25;6325708;28;20044;-57
2021/05/30 13:56:43;;;;;;;4.05;2.00;;;;;;;17.62;54.01;100279.75;6325944;28;20051;-58
2021/05/30 13:59:45;;;;;;;2.15;1.65;;;;;;;17.53;54.04;100280.56;6325876;28;20440;-58
2021/05/30 14:02:45;;;;;;;2.00;1.60;;;;;;;17.51;52.73;100278.03;6325811;28;20048;-57
2021/05/30 14:05:47;;;;;;;2.72;1.65;;;;;;;17.36;52.38;100282.03;6307360;28;20118;-58
2021/05/30 14:08:47;;;;;;;2.33;1.33;;;;;;;17.36;52.26;100278.53;6325517;28;20040;-57
2021/05/30 14:11:48;;;;;;;1.15;1.05;;;;;;;17.23;50.67;100281.38;6325445;28;20036;-57
2021/05/30 14:14:49;;;;;;;1.52;1.20;;;;;;;17.13;50.04;100289.22;6325599;28;20127;-57
2021/05/30 14:17:50;;;;;;;3.40;1.20;;;;;;;17.16;49.71;100281.06;6325549;28;20051;-57